createdAt,value
2018-12-26T00:02:15.206Z,63.23
2018-12-26T00:08:33.194Z,65.78
2018-12-26T00:11:22.636Z,63.69
2018-12-26T00:14:04.739Z,64.36
2018-12-26T00:16:54.134Z,65.94
2018-12-26T00:19:43.438Z,64.48
2018-12-26T00:22:34.179Z,64.74
2018-12-26T00:25:23.355Z,64.06
2018-12-26T00:28:31.878Z,65.44
2018-12-26T00:31:21.046Z,64.77
2018-12-26T00:34:10.520Z,65.44
2018-12-26T00:37:00.011Z,64.23
2018-12-26T00:39:49.157Z,65.92
2018-12-26T00:42:38.315Z,66.37
2018-12-26T00:45:28.024Z,66.13
2018-12-26T00:48:17.178Z,65.95
2018-12-26T00:51:06.336Z,65.35
2018-12-26T00:53:55.825Z,65.77
2018-12-26T00:56:44.999Z,67.54
2018-12-26T00:59:34.131Z,66.69
2018-12-26T01:02:23.273Z,65.92
2018-12-26T01:05:12.526Z,66.82
2018-12-26T01:08:01.677Z,67.42
2018-12-26T01:10:51.067Z,65.85
2018-12-26T01:13:40.218Z,65.40
2018-12-26T01:16:22.335Z,65.88
2018-12-26T01:19:11.499Z,67.09
2018-12-26T01:22:00.950Z,67.01
2018-12-26T01:24:50.081Z,66.76
2018-12-26T01:27:39.465Z,65.88
2018-12-26T01:33:36.716Z,66.26
2018-12-26T01:36:44.906Z,65.59
2018-12-26T01:39:34.530Z,67.14
2018-12-26T01:42:23.927Z,67.40
2018-12-26T01:45:13.400Z,65.40
2018-12-26T01:48:02.979Z,66.69
2018-12-26T01:50:52.190Z,66.63
2018-12-26T01:53:41.341Z,66.47
2018-12-26T01:56:30.481Z,67.33
2018-12-26T01:59:19.626Z,66.66
2018-12-26T02:02:08.777Z,66.45
2018-12-26T02:04:57.915Z,67.10
2018-12-26T02:07:47.384Z,66.11
2018-12-26T02:10:36.549Z,66.30
2018-12-26T02:13:25.702Z,66.60
2018-12-26T02:16:08.543Z,64.96
2018-12-26T02:18:57.750Z,66.19
2018-12-26T02:22:06.154Z,66.52
2018-12-26T02:24:55.307Z,65.78
2018-12-26T02:27:44.465Z,66.69
2018-12-26T02:30:33.609Z,66.07
2018-12-26T02:36:17.354Z,67.29
2018-12-26T02:39:07.774Z,66.01
2018-12-26T02:41:56.934Z,65.34
2018-12-26T02:44:46.158Z,65.25
2018-12-26T02:47:35.664Z,65.16
2018-12-26T02:50:24.823Z,65.36
2018-12-26T02:53:13.981Z,65.51
2018-12-26T02:56:03.202Z,65.58
2018-12-26T02:58:52.367Z,64.89
2018-12-26T03:01:41.517Z,66.51
2018-12-26T03:04:30.876Z,64.88
2018-12-26T03:07:21.744Z,64.73
2018-12-26T03:10:10.964Z,65.87
2018-12-26T03:13:00.138Z,66.81
2018-12-26T03:15:42.392Z,66.46
2018-12-26T03:18:31.628Z,65.47
2018-12-26T03:21:40.197Z,64.44
2018-12-26T03:24:29.374Z,66.19
2018-12-26T03:27:18.817Z,65.42
2018-12-26T03:33:02.525Z,67.21
2018-12-26T03:35:51.800Z,66.09
2018-12-26T03:41:49.280Z,65.72
2018-12-26T03:47:54.037Z,66.67
2018-12-26T03:50:43.489Z,65.48
2018-12-26T03:53:32.648Z,65.95
2018-12-26T03:56:22.228Z,65.43
2018-12-26T04:02:40.018Z,65.27
2018-12-26T04:08:43.943Z,67.24
2018-12-26T04:11:33.250Z,67.12
2018-12-26T04:14:15.290Z,66.85
2018-12-26T04:17:04.679Z,68.12
2018-12-26T04:26:24.384Z,67.82
2018-12-26T04:29:13.527Z,67.27
2018-12-26T04:32:02.734Z,68.05
2018-12-26T04:34:51.856Z,68.86
2018-12-26T04:37:41.011Z,69.40
2018-12-26T04:40:30.427Z,68.77
2018-12-26T04:43:19.603Z,68.35
2018-12-26T04:46:09.046Z,67.77
2018-12-26T04:48:58.527Z,68.68
2018-12-26T04:51:47.684Z,68.58
2018-12-26T04:54:36.848Z,68.42
2018-12-26T04:57:26.012Z,67.85
2018-12-26T05:00:15.158Z,68.83
2018-12-26T05:03:04.309Z,68.58
2018-12-26T05:05:53.755Z,69.36
2018-12-26T05:08:43.411Z,69.84
2018-12-26T05:11:32.597Z,69.82
2018-12-26T05:14:22.184Z,69.97
2018-12-26T05:17:06.241Z,70.26
2018-12-26T05:20:14.712Z,70.53
2018-12-26T05:23:03.877Z,71.02
2018-12-26T05:26:12.124Z,70.32
2018-12-26T05:29:01.257Z,69.82
2018-12-26T05:35:06.484Z,69.55
2018-12-26T05:37:55.631Z,70.64
2018-12-26T05:40:44.802Z,70.37
2018-12-26T05:43:33.964Z,70.74
2018-12-26T05:46:23.146Z,70.88
2018-12-26T05:49:12.512Z,70.76
2018-12-26T05:52:01.671Z,69.81
2018-12-26T05:54:50.810Z,69.18
2018-12-26T05:57:54.243Z,68.71
2018-12-26T06:00:30.874Z,69.51
2018-12-26T06:03:20.034Z,70.23
2018-12-26T06:06:09.290Z,68.82
2018-12-26T06:08:58.446Z,69.80
2018-12-26T06:11:47.872Z,70.06
2018-12-26T06:14:37.261Z,69.37
2018-12-26T06:17:19.858Z,69.87
2018-12-26T06:20:09.009Z,69.21
2018-12-26T06:22:58.172Z,70.61
2018-12-26T06:25:47.319Z,71.33
2018-12-26T06:28:36.740Z,70.24
2018-12-26T06:31:25.913Z,69.51
2018-12-26T06:34:15.070Z,70.38
2018-12-26T06:37:04.528Z,70.67
2018-12-26T06:40:00.778Z,69.89
2018-12-26T06:42:49.926Z,72.26
2018-12-26T06:45:39.095Z,69.98
2018-12-26T06:48:28.260Z,70.01
2018-12-26T06:51:17.419Z,73.93
2018-12-26T06:54:06.596Z,70.71
2018-12-26T06:56:56.092Z,70.68
2018-12-26T06:59:45.237Z,70.43
2018-12-26T07:02:34.729Z,70.47
2018-12-26T07:05:23.895Z,70.40
2018-12-26T07:08:13.049Z,70.83
2018-12-26T07:11:02.217Z,70.64
2018-12-26T07:13:51.702Z,70.54
2018-12-26T07:16:34.537Z,70.49
2018-12-26T07:19:24.188Z,71.86
2018-12-26T07:22:13.335Z,70.60
2018-12-26T07:25:02.520Z,70.77
2018-12-26T07:27:51.757Z,70.67
2018-12-26T07:30:40.907Z,70.24
2018-12-26T07:33:30.346Z,70.26
2018-12-26T07:36:19.811Z,70.10
2018-12-26T07:39:09.303Z,70.33
2018-12-26T07:41:58.689Z,70.30
2018-12-26T07:44:48.014Z,71.00
2018-12-26T07:47:37.413Z,70.09
2018-12-26T07:50:26.584Z,70.08
2018-12-26T07:53:15.960Z,70.74
2018-12-26T07:56:05.123Z,71.02
2018-12-26T07:58:54.272Z,70.85
2018-12-26T08:01:43.505Z,70.86
2018-12-26T08:04:52.076Z,71.62
2018-12-26T08:07:41.233Z,70.87
2018-12-26T08:10:30.396Z,73.64
2018-12-26T08:13:19.550Z,71.69
2018-12-26T08:16:01.574Z,71.00
2018-12-26T08:18:50.757Z,70.83
2018-12-26T08:21:39.915Z,71.61
2018-12-26T08:24:29.071Z,72.00
2018-12-26T08:27:18.346Z,72.36
2018-12-26T08:30:07.698Z,71.56
2018-12-26T08:32:56.867Z,71.57
2018-12-26T08:35:46.027Z,71.96
2018-12-26T08:38:35.257Z,72.07
2018-12-26T08:41:24.427Z,72.40
2018-12-26T08:44:13.614Z,76.10
2018-12-26T08:47:02.772Z,73.28
2018-12-26T08:49:51.913Z,72.78
2018-12-26T08:52:41.088Z,73.16
2018-12-26T08:55:30.236Z,72.77
2018-12-26T09:01:14.027Z,72.18
2018-12-26T09:04:03.179Z,72.55
2018-12-26T09:06:52.416Z,72.71
2018-12-26T09:10:00.959Z,72.94
2018-12-26T09:12:50.332Z,72.59
2018-12-26T09:15:39.496Z,72.42
2018-12-26T09:18:28.663Z,72.71
2018-12-26T09:21:18.113Z,72.38
2018-12-26T09:27:03.434Z,73.09
2018-12-26T09:29:53.162Z,72.72
2018-12-26T09:32:43.773Z,72.91
2018-12-26T09:35:33.047Z,72.46
2018-12-26T09:38:22.208Z,72.65
2018-12-26T09:41:11.806Z,74.67
2018-12-26T09:44:00.984Z,73.28
2018-12-26T09:46:50.428Z,73.24
2018-12-26T09:49:39.919Z,73.45
2018-12-26T09:52:29.397Z,72.93
2018-12-26T09:55:18.975Z,74.18
2018-12-26T09:58:08.165Z,72.51
2018-12-26T10:00:57.358Z,73.08
2018-12-26T10:03:46.528Z,74.38
2018-12-26T10:06:35.691Z,73.78
2018-12-26T10:09:24.907Z,73.13
2018-12-26T10:12:14.056Z,72.50
2018-12-26T10:15:03.553Z,75.05
2018-12-26T10:17:45.491Z,75.82
2018-12-26T10:20:34.643Z,74.14
2018-12-26T10:23:23.822Z,74.52
2018-12-26T10:26:13.062Z,73.59
2018-12-26T10:29:02.231Z,73.40
2018-12-26T10:31:51.393Z,74.10
2018-12-26T10:34:40.540Z,73.09
2018-12-26T10:37:29.694Z,73.80
2018-12-26T10:40:18.860Z,74.68
2018-12-26T10:43:08.367Z,74.57
2018-12-26T10:45:57.526Z,74.99
2018-12-26T10:48:47.210Z,75.24
2018-12-26T10:51:36.582Z,74.46
2018-12-26T10:54:25.748Z,73.90
2018-12-26T10:57:14.902Z,74.24
2018-12-26T11:03:19.576Z,74.03
2018-12-26T11:06:09.023Z,75.67
2018-12-26T11:08:58.408Z,77.02
2018-12-26T11:11:47.605Z,76.55
2018-12-26T11:14:36.761Z,76.01
2018-12-26T11:17:19.040Z,75.21
2018-12-26T11:20:11.225Z,74.95
2018-12-26T11:23:00.384Z,75.55
2018-12-26T11:26:08.971Z,75.40
2018-12-26T11:28:58.118Z,74.86
2018-12-26T11:31:47.618Z,74.89
2018-12-26T11:34:37.090Z,75.69
2018-12-26T11:37:26.324Z,74.69
2018-12-26T11:40:35.287Z,74.76
2018-12-26T11:43:24.614Z,75.90
2018-12-26T11:46:14.023Z,76.02
2018-12-26T11:49:03.507Z,76.30
2018-12-26T11:51:52.698Z,74.99
2018-12-26T11:54:41.841Z,76.32
2018-12-26T11:57:31.061Z,76.52
2018-12-26T12:00:20.766Z,76.20
2018-12-26T12:03:10.006Z,75.58
2018-12-26T12:05:59.483Z,77.20
2018-12-26T12:08:48.731Z,77.69
2018-12-26T12:11:37.890Z,78.68
2018-12-26T12:14:27.117Z,77.47
2018-12-26T12:17:08.767Z,77.03
2018-12-26T12:19:57.955Z,75.86
2018-12-26T12:22:47.112Z,77.51
2018-12-26T12:25:36.317Z,77.32
2018-12-26T12:28:25.504Z,77.81
2018-12-26T12:31:14.663Z,78.16
2018-12-26T12:34:04.077Z,78.85
2018-12-26T12:36:53.238Z,78.43
2018-12-26T12:40:01.457Z,78.31
2018-12-26T12:43:09.663Z,78.49
2018-12-26T12:45:59.207Z,78.48
2018-12-26T12:48:48.681Z,79.30
2018-12-26T12:51:38.167Z,78.90
2018-12-26T12:54:46.360Z,78.61
2018-12-26T12:57:35.830Z,78.91
2018-12-26T13:00:24.973Z,78.46
2018-12-26T13:03:14.136Z,79.05
2018-12-26T13:06:03.305Z,78.18
2018-12-26T13:08:52.484Z,78.80
2018-12-26T13:11:41.633Z,80.03
2018-12-26T13:14:30.822Z,79.78
2018-12-26T13:17:12.503Z,79.22
2018-12-26T13:20:01.692Z,77.95
2018-12-26T13:22:50.902Z,79.47
2018-12-26T13:25:40.049Z,79.42
2018-12-26T13:28:29.510Z,78.00
2018-12-26T13:31:18.753Z,80.89
2018-12-26T13:34:07.910Z,78.88
2018-12-26T13:36:57.068Z,79.13
2018-12-26T13:39:46.480Z,80.46
2018-12-26T13:42:35.613Z,78.94
2018-12-26T13:45:25.024Z,78.58
2018-12-26T13:48:14.254Z,78.94
2018-12-26T13:51:03.418Z,79.80
2018-12-26T13:53:52.587Z,79.48
2018-12-26T13:56:41.748Z,79.18
2018-12-26T13:59:30.919Z,78.49
2018-12-26T14:02:20.305Z,77.98
2018-12-26T14:05:09.549Z,78.80
2018-12-26T14:07:58.951Z,79.15
2018-12-26T14:10:48.449Z,79.51
2018-12-26T14:13:37.922Z,80.15
2018-12-26T14:16:19.885Z,79.82
2018-12-26T14:19:09.098Z,79.05
2018-12-26T14:21:58.246Z,80.00
2018-12-26T14:24:47.639Z,79.81
2018-12-26T14:27:37.414Z,80.48
2018-12-26T14:30:26.573Z,80.08
2018-12-26T14:33:15.730Z,81.15
2018-12-26T14:36:04.901Z,80.61
2018-12-26T14:38:54.375Z,80.11
2018-12-26T14:41:43.528Z,80.37
2018-12-26T14:44:32.682Z,81.15
2018-12-26T14:47:22.094Z,79.10
2018-12-26T14:50:30.295Z,80.31
2018-12-26T14:53:19.796Z,80.92
2018-12-26T14:56:09.252Z,80.88
2018-12-26T14:58:58.711Z,79.81
2018-12-26T15:01:47.877Z,79.35
2018-12-26T15:04:37.369Z,79.40
2018-12-26T15:07:26.573Z,80.71
2018-12-26T15:10:15.712Z,80.46
2018-12-26T15:13:04.882Z,80.55
2018-12-26T15:15:54.643Z,79.76
2018-12-26T15:18:43.775Z,81.35
2018-12-26T15:21:32.953Z,79.29
2018-12-26T15:24:22.329Z,79.69
2018-12-26T15:27:11.853Z,80.22
2018-12-26T15:30:00.991Z,79.70
2018-12-26T15:32:50.158Z,80.40
2018-12-26T15:35:39.477Z,79.50
2018-12-26T15:38:28.627Z,81.68
2018-12-26T15:41:17.811Z,81.01
2018-12-26T15:44:07.001Z,81.20
2018-12-26T15:46:56.186Z,80.88
2018-12-26T15:49:45.328Z,80.24
2018-12-26T15:52:34.480Z,80.29
2018-12-26T15:55:23.634Z,80.57
2018-12-26T15:58:12.838Z,80.38
2018-12-26T16:01:02.242Z,80.66
2018-12-26T16:03:51.419Z,81.79
2018-12-26T16:06:40.985Z,81.42
2018-12-26T16:09:30.162Z,80.38
2018-12-26T16:12:19.470Z,81.43
2018-12-26T16:15:28.981Z,79.86
2018-12-26T16:18:14.052Z,80.47
2018-12-26T16:21:03.226Z,80.95
2018-12-26T16:23:52.377Z,80.53
2018-12-26T16:26:41.587Z,79.77
2018-12-26T16:29:31.008Z,80.39
2018-12-26T16:32:20.428Z,80.81
2018-12-26T16:35:29.027Z,81.11
2018-12-26T16:38:18.180Z,80.54
2018-12-26T16:41:07.562Z,80.02
2018-12-26T16:43:56.745Z,79.85
2018-12-26T16:46:45.936Z,80.87
2018-12-26T16:49:35.351Z,80.22
2018-12-26T16:52:24.833Z,81.64
2018-12-26T16:55:14.070Z,81.69
2018-12-26T17:00:58.405Z,81.96
2018-12-26T17:03:47.615Z,81.66
2018-12-26T17:06:36.760Z,81.43
2018-12-26T17:12:21.221Z,81.80
2018-12-26T17:15:10.768Z,81.43
2018-12-26T17:17:52.497Z,81.92
2018-12-26T17:20:41.798Z,81.69
2018-12-26T17:23:31.483Z,81.86
2018-12-26T17:26:20.675Z,81.43
2018-12-26T17:29:09.843Z,80.99
2018-12-26T17:31:59.006Z,81.58
2018-12-26T17:34:48.158Z,81.29
2018-12-26T17:37:37.647Z,81.04
2018-12-26T17:40:26.826Z,80.71
2018-12-26T17:43:15.980Z,81.09
2018-12-26T17:49:20.868Z,81.71
2018-12-26T17:52:10.080Z,80.72
2018-12-26T17:55:37.683Z,81.10
2018-12-26T17:58:29.233Z,81.00
2018-12-26T18:01:56.890Z,81.20
2018-12-26T18:04:46.166Z,81.65
2018-12-26T18:07:35.327Z,82.48
2018-12-26T18:10:24.786Z,82.30
2018-12-26T18:13:13.920Z,81.73
2018-12-26T18:16:03.137Z,81.04
2018-12-26T18:18:52.584Z,80.25
2018-12-26T18:21:41.805Z,80.32
2018-12-26T18:24:30.980Z,80.65
2018-12-26T18:27:20.411Z,80.07
2018-12-26T18:33:39.688Z,80.35
2018-12-26T18:36:28.853Z,80.97
2018-12-26T18:39:18.011Z,79.90
2018-12-26T18:42:07.190Z,80.43
2018-12-26T18:44:56.361Z,80.01
2018-12-26T18:47:45.744Z,79.37
2018-12-26T18:50:35.168Z,79.34
2018-12-26T18:53:24.373Z,79.17
2018-12-26T18:56:13.530Z,79.08
2018-12-26T18:59:03.000Z,81.54
2018-12-26T19:01:52.211Z,79.69
2018-12-26T19:04:41.659Z,79.56
2018-12-26T19:07:49.776Z,79.88
2018-12-26T19:10:38.930Z,80.52
2018-12-26T19:13:28.100Z,79.38
2018-12-26T19:16:09.989Z,79.71
2018-12-26T19:18:59.181Z,79.63
2018-12-26T19:21:48.335Z,78.48
2018-12-26T19:24:37.486Z,79.53
2018-12-26T19:27:27.032Z,80.27
2018-12-26T19:30:16.201Z,79.94
2018-12-26T19:33:05.562Z,80.67
2018-12-26T19:35:54.742Z,80.65
2018-12-26T19:38:43.914Z,80.51
2018-12-26T19:41:33.403Z,80.41
2018-12-26T19:44:42.283Z,80.14
2018-12-26T19:47:31.808Z,81.01
2018-12-26T19:50:21.038Z,80.39
2018-12-26T19:53:10.215Z,80.35
2018-12-26T19:55:59.732Z,81.15
2018-12-26T19:58:49.170Z,81.31
2018-12-26T20:01:38.684Z,80.66
2018-12-26T20:04:28.060Z,80.79
2018-12-26T20:07:17.210Z,81.11
2018-12-26T20:10:07.759Z,80.43
2018-12-26T20:12:57.305Z,78.91
2018-12-26T20:15:46.470Z,79.92
2018-12-26T20:18:28.902Z,80.21
2018-12-26T20:21:18.060Z,79.19
2018-12-26T20:24:07.225Z,78.80
2018-12-26T20:26:56.408Z,79.94
2018-12-26T20:29:45.565Z,79.18
2018-12-26T20:32:34.781Z,78.69
2018-12-26T20:35:24.173Z,79.54
2018-12-26T20:38:13.347Z,80.84
2018-12-26T20:41:02.622Z,79.14
2018-12-26T20:44:10.803Z,78.36
2018-12-26T20:47:00.201Z,78.69
2018-12-26T20:49:49.436Z,77.66
2018-12-26T20:52:38.527Z,82.15
2018-12-26T20:55:28.009Z,77.41
2018-12-26T21:01:25.332Z,76.49
2018-12-26T21:04:15.274Z,77.04
2018-12-26T21:06:45.409Z,77.36
2018-12-26T21:09:16.468Z,77.49
2018-12-26T21:11:46.803Z,78.82
2018-12-26T21:14:17.294Z,78.64
2018-12-26T21:16:54.800Z,78.76
2018-12-26T21:19:19.335Z,78.87
2018-12-26T21:21:49.315Z,77.96
2018-12-26T21:24:19.404Z,77.91
2018-12-26T21:27:08.893Z,78.86
2018-12-26T21:29:38.870Z,78.74
2018-12-26T21:32:28.105Z,79.04
2018-12-26T21:35:17.590Z,80.25
2018-12-26T21:38:06.853Z,78.82
2018-12-26T21:41:15.170Z,79.19
2018-12-26T21:44:04.452Z,80.43
2018-12-26T21:46:53.900Z,79.71
2018-12-26T21:49:43.559Z,80.48
2018-12-26T21:52:32.718Z,79.73
2018-12-26T21:55:23.279Z,80.59
2018-12-26T21:57:54.038Z,79.11
2018-12-26T22:00:24.858Z,79.24
2018-12-26T22:02:55.190Z,79.17
2018-12-26T22:05:26.264Z,79.82
2018-12-26T22:07:57.348Z,79.24
2018-12-26T22:10:28.095Z,79.07
2018-12-26T22:12:58.446Z,78.68
2018-12-26T22:15:28.369Z,78.87
2018-12-26T22:17:58.447Z,79.53
2018-12-26T22:20:47.650Z,78.78
2018-12-26T22:23:36.824Z,80.18
2018-12-26T22:26:26.311Z,81.63
2018-12-26T22:29:15.597Z,81.67
2018-12-26T22:32:05.126Z,80.67
2018-12-26T22:34:54.945Z,81.27
2018-12-26T22:40:38.951Z,80.01
2018-12-26T22:43:28.508Z,79.10
2018-12-26T22:52:21.962Z,80.72
2018-12-26T22:58:19.389Z,80.56
2018-12-26T23:01:08.628Z,78.89
2018-12-26T23:03:57.811Z,78.68
2018-12-26T23:06:47.003Z,79.04
2018-12-26T23:09:36.225Z,78.75
2018-12-26T23:12:25.402Z,78.21
2018-12-26T23:18:02.553Z,79.33
2018-12-26T23:20:51.748Z,80.01
2018-12-26T23:23:40.931Z,79.50
2018-12-26T23:26:30.080Z,79.32
2018-12-26T23:29:19.321Z,77.66
2018-12-26T23:32:08.478Z,80.42
2018-12-26T23:34:57.652Z,79.39
2018-12-26T23:40:55.062Z,78.57
2018-12-26T23:43:44.686Z,77.68
2018-12-26T23:46:33.807Z,77.35
2018-12-26T23:49:23.065Z,77.59
2018-12-26T23:52:12.234Z,78.34
2018-12-26T23:55:01.410Z,77.00
2018-12-26T23:57:50.819Z,78.87
